createdAt,value
2023-01-25T00:04:01.428Z,27.7
2023-01-25T00:09:01.296Z,27.3
2023-01-25T00:14:01.438Z,27.1
2023-01-25T00:19:01.269Z,26.6
2023-01-25T00:24:01.584Z,28.1
2023-01-25T00:29:01.392Z,28.1
2023-01-25T00:34:01.443Z,28.4
2023-01-25T00:39:01.366Z,28.4
2023-01-25T00:44:02.275Z,28.2
2023-01-25T00:49:01.518Z,27.7
2023-01-25T00:54:01.444Z,27.5
2023-01-25T01:09:01.378Z,26.4
2023-01-25T01:14:01.423Z,26.5
2023-01-25T01:19:02.384Z,26.2
2023-01-25T01:24:01.668Z,25.8
2023-01-25T01:29:01.323Z,25.2
2023-01-25T01:34:01.581Z,25.2
2023-01-25T01:39:01.651Z,24.7
2023-01-25T01:44:01.274Z,24.1
2023-01-25T01:49:01.283Z,24.5
2023-01-25T01:54:01.459Z,24.6
2023-01-25T01:59:01.343Z,24.0
2023-01-25T02:04:01.274Z,24.0
2023-01-25T02:09:01.428Z,23.6
2023-01-25T02:14:01.448Z,23.3
2023-01-25T02:19:01.381Z,23.4
2023-01-25T02:24:01.677Z,22.5
2023-01-25T02:29:01.267Z,22.3
2023-01-25T02:34:01.508Z,22.7
2023-01-25T02:39:01.333Z,20.4
2023-01-25T02:44:01.345Z,20.0
2023-01-25T02:49:02.160Z,19.6
2023-01-25T02:54:01.539Z,19.6
2023-01-25T02:59:01.374Z,19.6
2023-01-25T03:04:01.337Z,21.7
2023-01-25T03:09:01.360Z,21.4
2023-01-25T03:14:01.512Z,22.0
2023-01-25T03:19:01.331Z,21.9
2023-01-25T03:25:01.279Z,21.9
2023-01-25T03:30:02.260Z,19.7
2023-01-25T03:35:01.269Z,20.6
2023-01-25T03:45:02.017Z,20.4
2023-01-25T03:50:01.443Z,20.3
2023-01-25T03:55:01.331Z,22.1
2023-01-25T04:00:01.746Z,21.2
2023-01-25T04:05:01.279Z,20.2
2023-01-25T04:10:01.415Z,20.5
2023-01-25T04:15:01.288Z,20.2
2023-01-25T04:20:01.259Z,21.0
2023-01-25T04:25:01.325Z,19.6
2023-01-25T04:30:01.425Z,20.2
2023-01-25T04:35:01.276Z,19.1
2023-01-25T04:40:01.420Z,19.0
2023-01-25T04:45:01.634Z,17.9
2023-01-25T04:50:01.549Z,18.6
2023-01-25T04:55:01.270Z,19.0
2023-01-25T05:00:01.500Z,20.0
2023-01-25T05:05:01.370Z,20.3
2023-01-25T05:10:02.319Z,20.9
2023-01-25T05:15:01.891Z,22.1
2023-01-25T05:20:01.303Z,21.9
2023-01-25T05:25:01.341Z,22.2
2023-01-25T05:31:01.850Z,22.4
2023-01-25T05:36:01.418Z,22.7
2023-01-25T05:41:01.275Z,22.1
2023-01-25T05:46:01.555Z,22.6
2023-01-25T05:51:02.352Z,22.3
2023-01-25T05:56:01.319Z,17.7
2023-01-25T06:01:02.962Z,17.9
2023-01-25T06:06:01.298Z,17.8
2023-01-25T06:11:01.498Z,17.8
2023-01-25T06:16:02.484Z,17.6
2023-01-25T06:21:01.344Z,21.5
2023-01-25T06:27:01.455Z,21.8
2023-01-25T06:32:01.341Z,22.4
2023-01-25T06:37:01.325Z,22.3
2023-01-25T06:47:01.475Z,22.8
2023-01-25T06:52:01.757Z,22.6
2023-01-25T06:57:01.304Z,22.6
2023-01-25T07:02:01.591Z,23.4
2023-01-25T07:07:02.355Z,23.7
2023-01-25T07:12:01.278Z,24.5
2023-01-25T07:17:04.284Z,24.3
2023-01-25T07:22:01.404Z,22.8
2023-01-25T07:27:01.553Z,22.4
2023-01-25T07:32:01.365Z,21.9
2023-01-25T07:37:01.900Z,21.9
2023-01-25T07:42:01.270Z,22.0
2023-01-25T07:47:01.352Z,23.8
2023-01-25T07:52:02.130Z,24.0
2023-01-25T07:57:01.266Z,25.9
2023-01-25T08:07:01.456Z,26.4
2023-01-25T08:12:01.333Z,26.2
2023-01-25T08:17:01.303Z,26.0
2023-01-25T08:22:01.378Z,24.4
2023-01-25T08:27:01.444Z,24.8
2023-01-25T08:32:01.514Z,24.2
2023-01-25T08:37:01.296Z,24.2
2023-01-25T08:42:01.348Z,24.4
2023-01-25T08:47:01.432Z,24.9
2023-01-25T08:53:02.190Z,25.1
2023-01-25T08:58:01.326Z,25.6
2023-01-25T09:03:01.430Z,26.1
2023-01-25T09:08:01.279Z,26.1
2023-01-25T09:13:01.268Z,25.8
2023-01-25T09:18:01.278Z,25.0
2023-01-25T09:23:02.247Z,24.5
2023-01-25T09:28:01.412Z,23.8
2023-01-25T09:33:01.876Z,23.3
2023-01-25T09:38:02.391Z,20.4
2023-01-25T09:43:01.419Z,20.9
2023-01-25T09:48:01.262Z,21.0
2023-01-25T09:53:14.005Z,21.0
2023-01-25T09:58:01.317Z,20.8
2023-01-25T10:03:01.579Z,23.4
2023-01-25T10:08:01.428Z,22.4
2023-01-25T10:13:01.327Z,21.9
2023-01-25T10:18:01.334Z,21.0
2023-01-25T10:23:01.456Z,21.1
2023-01-25T10:28:01.271Z,17.3
2023-01-25T10:38:01.275Z,16.9
2023-01-25T10:43:01.509Z,16.4
2023-01-25T10:48:01.259Z,15.9
2023-01-25T10:53:01.295Z,19.2
2023-01-25T10:58:01.274Z,18.8
2023-01-25T11:03:01.730Z,19.1
2023-01-25T11:08:01.351Z,19.5
2023-01-25T11:13:01.255Z,19.1
2023-01-25T11:18:01.314Z,19.0
2023-01-25T11:23:01.422Z,18.6
2023-01-25T11:28:01.392Z,18.2
2023-01-25T11:33:01.377Z,17.7
2023-01-25T11:38:01.372Z,17.6
2023-01-25T11:43:01.453Z,17.0
2023-01-25T11:48:01.294Z,17.2
2023-01-25T11:53:01.285Z,17.2
2023-01-25T11:58:01.280Z,18.2
2023-01-25T12:03:01.601Z,18.7
2023-01-25T12:08:01.745Z,18.8
2023-01-25T12:13:01.238Z,18.3
2023-01-25T12:18:01.246Z,17.6
2023-01-25T12:23:01.579Z,17.2
2023-01-25T12:28:01.273Z,15.8
2023-01-25T12:33:15.249Z,15.6
2023-01-25T12:38:01.312Z,15.2
2023-01-25T12:43:01.430Z,15.8
2023-01-25T12:48:01.270Z,15.6
2023-01-25T12:53:01.377Z,15.2
2023-01-25T12:58:01.278Z,15.3
2023-01-25T13:03:01.451Z,15.4
2023-01-25T13:08:02.107Z,15.4
2023-01-25T13:13:01.271Z,15.1
2023-01-25T13:18:01.297Z,16.6
2023-01-25T13:23:01.375Z,15.6
2023-01-25T13:28:01.284Z,15.8
2023-01-25T13:33:01.455Z,15.7
2023-01-25T13:38:01.286Z,16.1
2023-01-25T13:43:01.377Z,16.1
2023-01-25T13:48:01.273Z,17.3
2023-01-25T13:53:01.915Z,17.7
2023-01-25T13:58:01.258Z,17.6
2023-01-25T14:03:01.569Z,18.1
2023-01-25T14:08:01.315Z,17.9
2023-01-25T14:13:01.293Z,18.3
2023-01-25T14:18:01.254Z,19.2
2023-01-25T14:23:01.437Z,20.0
2023-01-25T14:28:01.278Z,20.2
2023-01-25T14:33:01.290Z,20.4
2023-01-25T14:38:01.352Z,20.8
2023-01-25T14:43:01.474Z,20.0
2023-01-25T14:48:01.347Z,19.7
2023-01-25T14:53:01.288Z,18.5
2023-01-25T14:58:01.358Z,18.8
2023-01-25T15:04:01.422Z,21.7
2023-01-25T15:09:01.362Z,23.7
2023-01-25T15:14:01.272Z,24.2
2023-01-25T15:19:01.344Z,25.6
2023-01-25T15:24:01.457Z,26.4
2023-01-25T15:29:01.284Z,23.8
2023-01-25T15:34:01.289Z,23.0
2023-01-25T15:39:01.366Z,22.5
2023-01-25T15:44:02.064Z,22.6
2023-01-25T15:49:01.315Z,23.0
2023-01-25T15:54:01.340Z,22.6
2023-01-25T15:59:01.398Z,22.1
2023-01-25T16:04:01.415Z,22.9
2023-01-25T16:09:01.350Z,23.1
2023-01-25T16:14:01.300Z,22.1
2023-01-25T16:19:01.268Z,21.2
2023-01-25T16:24:01.614Z,21.6
2023-01-25T16:29:01.391Z,20.9
2023-01-25T16:34:01.459Z,21.0
2023-01-25T16:39:01.340Z,21.8
2023-01-25T16:44:01.443Z,23.8
2023-01-25T16:49:02.419Z,24.9
2023-01-25T16:54:01.289Z,25.4
2023-01-25T16:59:01.352Z,25.8
2023-01-25T17:04:01.446Z,25.4
2023-01-25T17:09:24.365Z,24.6
2023-01-25T17:14:01.290Z,23.0
2023-01-25T17:19:01.312Z,22.6
2023-01-25T17:24:02.750Z,22.5
2023-01-25T17:29:01.400Z,21.6
2023-01-25T17:34:01.328Z,21.5
2023-01-25T17:39:01.545Z,21.4
2023-01-25T17:44:01.430Z,21.7
2023-01-25T17:54:01.416Z,23.0
2023-01-25T17:59:01.405Z,23.1
2023-01-25T18:04:01.544Z,23.6
2023-01-25T18:10:01.385Z,24.9
2023-01-25T18:15:03.901Z,24.6
2023-01-25T18:20:01.545Z,26.1
2023-01-25T18:25:01.310Z,27.5
2023-01-25T18:30:16.609Z,28.8
2023-01-25T18:35:01.258Z,28.4
2023-01-25T18:40:01.608Z,28.8
2023-01-25T18:46:01.855Z,28.1
2023-01-25T18:51:01.373Z,25.3
2023-01-25T18:56:01.457Z,24.2
2023-01-25T19:01:01.433Z,23.1
2023-01-25T19:06:01.275Z,22.5
2023-01-25T19:11:01.277Z,23.2
2023-01-25T19:16:01.645Z,25.0
2023-01-25T19:21:01.982Z,24.8
2023-01-25T19:26:01.359Z,26.3
2023-01-25T19:31:01.738Z,26.8
2023-01-25T19:36:02.649Z,26.5
2023-01-25T19:41:01.273Z,26.9
2023-01-25T19:46:01.280Z,28.0
2023-01-25T19:51:01.357Z,27.8
2023-01-25T19:56:01.422Z,28.2
2023-01-25T20:01:01.271Z,27.7
2023-01-25T20:06:01.361Z,27.8
2023-01-25T20:11:01.269Z,27.7
2023-01-25T20:16:01.451Z,27.4
2023-01-25T20:21:02.008Z,26.8
2023-01-25T20:26:01.342Z,27.7
2023-01-25T20:31:02.069Z,28.2
2023-01-25T20:36:01.482Z,28.4
2023-01-25T20:42:01.300Z,29.2
2023-01-25T20:47:01.339Z,30.3
2023-01-25T20:52:01.417Z,31.0
2023-01-25T20:57:01.286Z,31.4
2023-01-25T21:02:01.440Z,32.9
2023-01-25T21:07:01.280Z,33.3
2023-01-25T21:12:01.423Z,33.7
2023-01-25T21:17:01.274Z,32.6
2023-01-25T21:22:02.063Z,32.9
2023-01-25T21:27:01.298Z,30.6
2023-01-25T21:32:01.631Z,30.1
2023-01-25T21:37:01.579Z,29.5
2023-01-25T21:42:01.793Z,29.8
2023-01-25T21:52:01.391Z,29.9
2023-01-25T21:57:01.334Z,29.9
2023-01-25T22:02:01.284Z,29.3
2023-01-25T22:07:01.563Z,28.1
2023-01-25T22:12:01.444Z,26.7
2023-01-25T22:17:01.345Z,26.9
2023-01-25T22:22:01.461Z,26.1
2023-01-25T22:27:01.265Z,25.1
2023-01-25T22:32:01.372Z,25.5
2023-01-25T22:37:01.297Z,25.8
2023-01-25T22:42:02.076Z,25.2
2023-01-25T22:47:01.436Z,25.2
2023-01-25T22:52:01.572Z,25.8
2023-01-25T22:57:01.272Z,25.6
2023-01-25T23:02:01.367Z,25.6
2023-01-25T23:07:01.268Z,25.8
2023-01-25T23:12:01.542Z,26.1
2023-01-25T23:17:01.790Z,26.6
2023-01-25T23:23:01.531Z,27.7
2023-01-25T23:28:01.416Z,28.1
2023-01-25T23:33:01.265Z,29.1
2023-01-25T23:38:01.303Z,30.3
2023-01-25T23:43:01.294Z,30.2
2023-01-25T23:48:01.457Z,29.5
2023-01-25T23:53:01.338Z,29.3
2023-01-25T23:58:01.273Z,29.2
